sensor_id;sensor_type;location;lat;lon;timestamp;temperature;humidity
78516;SHT31;67815;51.990;5.688;2024-02-21T00:01:17;12.2;70.6
78516;SHT31;67815;51.990;5.688;2024-02-21T00:03:48;12.2;71.0
78516;SHT31;67815;51.990;5.688;2024-02-21T00:06:17;12.2;69.8
78516;SHT31;67815;51.990;5.688;2024-02-21T00:08:47;12.2;69.9
78516;SHT31;67815;51.990;5.688;2024-02-21T00:11:16;12.2;70.3
78516;SHT31;67815;51.990;5.688;2024-02-21T00:13:46;12.2;70.4
78516;SHT31;67815;51.990;5.688;2024-02-21T00:16:17;12.2;70.2
78516;SHT31;67815;51.990;5.688;2024-02-21T00:18:47;12.2;69.9
78516;SHT31;67815;51.990;5.688;2024-02-21T00:21:19;12.2;70.2
78516;SHT31;67815;51.990;5.688;2024-02-21T00:23:49;12.2;70.0
78516;SHT31;67815;51.990;5.688;2024-02-21T00:26:22;12.2;70.2
78516;SHT31;67815;51.990;5.688;2024-02-21T00:28:53;12.2;69.3
78516;SHT31;67815;51.990;5.688;2024-02-21T00:31:23;12.2;69.9
78516;SHT31;67815;51.990;5.688;2024-02-21T00:33:52;12.2;70.5
78516;SHT31;67815;51.990;5.688;2024-02-21T00:36:22;12.2;70.6
78516;SHT31;67815;51.990;5.688;2024-02-21T00:38:53;12.2;70.4
78516;SHT31;67815;51.990;5.688;2024-02-21T00:41:23;12.2;70.5
78516;SHT31;67815;51.990;5.688;2024-02-21T00:43:54;12.2;70.6
78516;SHT31;67815;51.990;5.688;2024-02-21T00:46:24;12.3;70.3
78516;SHT31;67815;51.990;5.688;2024-02-21T00:48:53;12.3;70.3
78516;SHT31;67815;51.990;5.688;2024-02-21T00:51:25;12.3;70.3
78516;SHT31;67815;51.990;5.688;2024-02-21T00:53:54;12.3;70.5
78516;SHT31;67815;51.990;5.688;2024-02-21T00:56:24;12.3;70.1
78516;SHT31;67815;51.990;5.688;2024-02-21T00:58:53;12.3;70.3
78516;SHT31;67815;51.990;5.688;2024-02-21T01:01:24;12.3;70.3
78516;SHT31;67815;51.990;5.688;2024-02-21T01:03:54;12.3;69.9
78516;SHT31;67815;51.990;5.688;2024-02-21T01:06:24;12.3;70.3
78516;SHT31;67815;51.990;5.688;2024-02-21T01:08:55;12.3;69.6
78516;SHT31;67815;51.990;5.688;2024-02-21T01:11:25;12.3;69.9
78516;SHT31;67815;51.990;5.688;2024-02-21T01:13:55;12.3;69.4
78516;SHT31;67815;51.990;5.688;2024-02-21T01:16:25;12.3;69.4
78516;SHT31;67815;51.990;5.688;2024-02-21T01:18:55;12.3;69.6
78516;SHT31;67815;51.990;5.688;2024-02-21T01:21:25;12.3;68.9
78516;SHT31;67815;51.990;5.688;2024-02-21T01:23:54;12.3;69.6
78516;SHT31;67815;51.990;5.688;2024-02-21T01:26:24;12.3;69.8
78516;SHT31;67815;51.990;5.688;2024-02-21T01:28:53;12.3;69.6
78516;SHT31;67815;51.990;5.688;2024-02-21T01:31:23;12.3;69.3
78516;SHT31;67815;51.990;5.688;2024-02-21T01:33:52;12.3;69.6
78516;SHT31;67815;51.990;5.688;2024-02-21T01:36:23;12.3;69.9
78516;SHT31;67815;51.990;5.688;2024-02-21T01:38:53;12.4;69.4
78516;SHT31;67815;51.990;5.688;2024-02-21T01:41:22;12.4;68.7
78516;SHT31;67815;51.990;5.688;2024-02-21T01:43:52;12.3;68.9
78516;SHT31;67815;51.990;5.688;2024-02-21T01:46:22;12.3;69.0
78516;SHT31;67815;51.990;5.688;2024-02-21T01:48:56;12.3;69.4
78516;SHT31;67815;51.990;5.688;2024-02-21T01:51:27;12.3;69.4
78516;SHT31;67815;51.990;5.688;2024-02-21T01:53:58;12.3;69.3
78516;SHT31;67815;51.990;5.688;2024-02-21T01:56:30;12.3;68.7
78516;SHT31;67815;51.990;5.688;2024-02-21T01:59:02;12.3;69.0
78516;SHT31;67815;51.990;5.688;2024-02-21T02:01:34;12.3;69.5
78516;SHT31;67815;51.990;5.688;2024-02-21T02:04:04;12.3;69.6
78516;SHT31;67815;51.990;5.688;2024-02-21T02:06:35;12.3;69.0
78516;SHT31;67815;51.990;5.688;2024-02-21T02:09:05;12.3;69.1
78516;SHT31;67815;51.990;5.688;2024-02-21T02:11:37;12.3;69.1
78516;SHT31;67815;51.990;5.688;2024-02-21T02:14:07;12.3;68.8
78516;SHT31;67815;51.990;5.688;2024-02-21T02:16:36;12.3;69.2
78516;SHT31;67815;51.990;5.688;2024-02-21T02:19:08;12.3;69.6
78516;SHT31;67815;51.990;5.688;2024-02-21T02:21:46;12.3;69.2
78516;SHT31;67815;51.990;5.688;2024-02-21T02:24:18;12.3;69.4
78516;SHT31;67815;51.990;5.688;2024-02-21T02:26:47;12.3;69.5
78516;SHT31;67815;51.990;5.688;2024-02-21T02:29:17;12.3;69.7
78516;SHT31;67815;51.990;5.688;2024-02-21T02:31:46;12.3;69.5
78516;SHT31;67815;51.990;5.688;2024-02-21T02:34:16;12.3;69.8
78516;SHT31;67815;51.990;5.688;2024-02-21T02:36:47;12.3;69.0
78516;SHT31;67815;51.990;5.688;2024-02-21T02:39:17;12.3;69.6
78516;SHT31;67815;51.990;5.688;2024-02-21T02:41:47;12.3;68.9
78516;SHT31;67815;51.990;5.688;2024-02-21T02:44:16;12.3;69.1
78516;SHT31;67815;51.990;5.688;2024-02-21T02:46:46;12.3;69.2
78516;SHT31;67815;51.990;5.688;2024-02-21T02:49:15;12.3;69.1
78516;SHT31;67815;51.990;5.688;2024-02-21T02:51:45;12.3;69.2
78516;SHT31;67815;51.990;5.688;2024-02-21T02:54:14;12.3;68.8
78516;SHT31;67815;51.990;5.688;2024-02-21T02:56:44;12.3;69.3
78516;SHT31;67815;51.990;5.688;2024-02-21T02:59:14;12.3;69.2
78516;SHT31;67815;51.990;5.688;2024-02-21T03:01:43;12.3;69.6
78516;SHT31;67815;51.990;5.688;2024-02-21T03:04:13;12.3;69.4
78516;SHT31;67815;51.990;5.688;2024-02-21T03:06:42;12.3;69.1
78516;SHT31;67815;51.990;5.688;2024-02-21T03:09:12;12.3;68.7
78516;SHT31;67815;51.990;5.688;2024-02-21T03:11:43;12.3;69.0
78516;SHT31;67815;51.990;5.688;2024-02-21T03:14:15;12.3;68.8
78516;SHT31;67815;51.990;5.688;2024-02-21T03:16:45;12.3;69.2
78516;SHT31;67815;51.990;5.688;2024-02-21T03:19:14;12.3;69.7
78516;SHT31;67815;51.990;5.688;2024-02-21T03:21:44;12.3;69.6
78516;SHT31;67815;51.990;5.688;2024-02-21T03:24:15;12.3;69.4
78516;SHT31;67815;51.990;5.688;2024-02-21T03:26:45;12.3;69.1
78516;SHT31;67815;51.990;5.688;2024-02-21T03:29:17;12.4;69.2
78516;SHT31;67815;51.990;5.688;2024-02-21T03:31:47;12.4;69.4
78516;SHT31;67815;51.990;5.688;2024-02-21T03:34:16;12.4;69.7
78516;SHT31;67815;51.990;5.688;2024-02-21T03:36:46;12.4;69.6
78516;SHT31;67815;51.990;5.688;2024-02-21T03:39:15;12.4;69.6
78516;SHT31;67815;51.990;5.688;2024-02-21T03:41:45;12.4;69.4
78516;SHT31;67815;51.990;5.688;2024-02-21T03:44:15;12.4;69.3
78516;SHT31;67815;51.990;5.688;2024-02-21T03:46:44;12.4;69.3
78516;SHT31;67815;51.990;5.688;2024-02-21T03:49:14;12.4;69.3
78516;SHT31;67815;51.990;5.688;2024-02-21T03:51:43;12.4;69.2
78516;SHT31;67815;51.990;5.688;2024-02-21T03:54:13;12.4;69.1
78516;SHT31;67815;51.990;5.688;2024-02-21T03:56:43;12.4;69.0
78516;SHT31;67815;51.990;5.688;2024-02-21T03:59:12;12.4;69.2
78516;SHT31;67815;51.990;5.688;2024-02-21T04:01:42;12.4;69.0
78516;SHT31;67815;51.990;5.688;2024-02-21T04:04:12;12.4;69.3
78516;SHT31;67815;51.990;5.688;2024-02-21T04:06:48;12.4;69.4
78516;SHT31;67815;51.990;5.688;2024-02-21T04:09:18;12.3;69.3
78516;SHT31;67815;51.990;5.688;2024-02-21T04:11:47;12.3;69.4
78516;SHT31;67815;51.990;5.688;2024-02-21T04:14:17;12.3;69.5
78516;SHT31;67815;51.990;5.688;2024-02-21T04:16:48;12.3;68.9
78516;SHT31;67815;51.990;5.688;2024-02-21T04:19:18;12.3;69.1
78516;SHT31;67815;51.990;5.688;2024-02-21T04:21:48;12.3;69.1
78516;SHT31;67815;51.990;5.688;2024-02-21T04:24:19;12.3;69.4
78516;SHT31;67815;51.990;5.688;2024-02-21T04:26:49;12.2;69.6
78516;SHT31;67815;51.990;5.688;2024-02-21T04:29:18;12.2;69.6
78516;SHT31;67815;51.990;5.688;2024-02-21T04:31:48;12.2;69.6
78516;SHT31;67815;51.990;5.688;2024-02-21T04:34:18;12.2;69.6
78516;SHT31;67815;51.990;5.688;2024-02-21T04:36:47;12.2;69.8
78516;SHT31;67815;51.990;5.688;2024-02-21T04:39:17;12.2;69.7
78516;SHT31;67815;51.990;5.688;2024-02-21T04:41:46;12.2;69.8
78516;SHT31;67815;51.990;5.688;2024-02-21T04:44:16;12.2;69.9
78516;SHT31;67815;51.990;5.688;2024-02-21T04:46:49;12.2;69.9
78516;SHT31;67815;51.990;5.688;2024-02-21T04:49:19;12.2;69.8
78516;SHT31;67815;51.990;5.688;2024-02-21T04:51:48;12.2;69.8
78516;SHT31;67815;51.990;5.688;2024-02-21T04:54:18;12.2;69.9
78516;SHT31;67815;51.990;5.688;2024-02-21T04:56:47;12.2;69.5
78516;SHT31;67815;51.990;5.688;2024-02-21T04:59:18;12.2;69.6
78516;SHT31;67815;51.990;5.688;2024-02-21T05:01:49;12.1;69.8
78516;SHT31;67815;51.990;5.688;2024-02-21T05:04:19;12.1;69.7
78516;SHT31;67815;51.990;5.688;2024-02-21T05:06:49;12.1;69.7
78516;SHT31;67815;51.990;5.688;2024-02-21T05:09:18;12.1;69.8
78516;SHT31;67815;51.990;5.688;2024-02-21T05:11:48;12.1;69.6
78516;SHT31;67815;51.990;5.688;2024-02-21T05:14:20;12.1;69.8
78516;SHT31;67815;51.990;5.688;2024-02-21T05:16:49;12.1;69.5
78516;SHT31;67815;51.990;5.688;2024-02-21T05:19:19;12.1;69.4
78516;SHT31;67815;51.990;5.688;2024-02-21T05:21:49;12.1;69.8
78516;SHT31;67815;51.990;5.688;2024-02-21T05:24:18;12.1;69.7
78516;SHT31;67815;51.990;5.688;2024-02-21T05:26:48;12.1;69.6
78516;SHT31;67815;51.990;5.688;2024-02-21T05:29:17;12.1;69.6
78516;SHT31;67815;51.990;5.688;2024-02-21T05:31:59;12.1;69.7
78516;SHT31;67815;51.990;5.688;2024-02-21T05:34:31;12.1;69.6
78516;SHT31;67815;51.990;5.688;2024-02-21T05:37:01;12.1;69.6
78516;SHT31;67815;51.990;5.688;2024-02-21T05:39:31;12.0;69.7
78516;SHT31;67815;51.990;5.688;2024-02-21T05:42:00;12.0;69.9
78516;SHT31;67815;51.990;5.688;2024-02-21T05:44:30;12.0;70.0
78516;SHT31;67815;51.990;5.688;2024-02-21T05:46:59;12.0;69.9
78516;SHT31;67815;51.990;5.688;2024-02-21T05:49:29;12.0;69.8
78516;SHT31;67815;51.990;5.688;2024-02-21T05:51:58;12.0;70.0
78516;SHT31;67815;51.990;5.688;2024-02-21T05:54:28;12.0;70.1
78516;SHT31;67815;51.990;5.688;2024-02-21T05:56:58;12.0;70.0
78516;SHT31;67815;51.990;5.688;2024-02-21T05:59:28;12.0;70.1
78516;SHT31;67815;51.990;5.688;2024-02-21T06:01:58;12.0;70.0
78516;SHT31;67815;51.990;5.688;2024-02-21T06:04:31;11.9;70.2
78516;SHT31;67815;51.990;5.688;2024-02-21T06:07:00;11.9;69.9
78516;SHT31;67815;51.990;5.688;2024-02-21T06:09:31;11.9;69.9
78516;SHT31;67815;51.990;5.688;2024-02-21T06:12:01;11.9;70.1
78516;SHT31;67815;51.990;5.688;2024-02-21T06:14:31;11.9;70.1
78516;SHT31;67815;51.990;5.688;2024-02-21T06:17:00;11.9;70.1
78516;SHT31;67815;51.990;5.688;2024-02-21T06:19:30;11.9;70.2
78516;SHT31;67815;51.990;5.688;2024-02-21T06:21:59;11.9;70.1
78516;SHT31;67815;51.990;5.688;2024-02-21T06:24:34;11.9;70.2
78516;SHT31;67815;51.990;5.688;2024-02-21T06:27:05;11.9;69.7
78516;SHT31;67815;51.990;5.688;2024-02-21T06:29:35;11.9;69.9
78516;SHT31;67815;51.990;5.688;2024-02-21T06:32:06;11.9;69.9
78516;SHT31;67815;51.990;5.688;2024-02-21T06:34:35;11.8;70.2
78516;SHT31;67815;51.990;5.688;2024-02-21T06:37:05;11.8;70.0
78516;SHT31;67815;51.990;5.688;2024-02-21T06:39:35;11.8;69.9
78516;SHT31;67815;51.990;5.688;2024-02-21T06:42:08;11.8;70.2
78516;SHT31;67815;51.990;5.688;2024-02-21T06:44:38;11.8;70.1
78516;SHT31;67815;51.990;5.688;2024-02-21T06:47:08;11.8;70.2
78516;SHT31;67815;51.990;5.688;2024-02-21T06:49:37;11.8;70.5
78516;SHT31;67815;51.990;5.688;2024-02-21T06:52:08;11.8;70.4
78516;SHT31;67815;51.990;5.688;2024-02-21T06:54:37;11.8;70.3
78516;SHT31;67815;51.990;5.688;2024-02-21T06:57:07;11.8;70.5
78516;SHT31;67815;51.990;5.688;2024-02-21T06:59:37;11.8;70.3
78516;SHT31;67815;51.990;5.688;2024-02-21T07:02:07;11.8;70.3
78516;SHT31;67815;51.990;5.688;2024-02-21T07:04:37;11.8;70.2
78516;SHT31;67815;51.990;5.688;2024-02-21T07:07:06;11.8;69.7
78516;SHT31;67815;51.990;5.688;2024-02-21T07:09:36;11.8;70.0
78516;SHT31;67815;51.990;5.688;2024-02-21T07:12:06;11.8;70.1
78516;SHT31;67815;51.990;5.688;2024-02-21T07:14:36;11.8;70.2
78516;SHT31;67815;51.990;5.688;2024-02-21T07:17:06;11.8;70.1
78516;SHT31;67815;51.990;5.688;2024-02-21T07:19:36;11.8;69.8
78516;SHT31;67815;51.990;5.688;2024-02-21T07:22:05;11.8;69.9
78516;SHT31;67815;51.990;5.688;2024-02-21T07:24:35;11.8;69.8
78516;SHT31;67815;51.990;5.688;2024-02-21T07:27:05;11.8;69.6
78516;SHT31;67815;51.990;5.688;2024-02-21T07:29:35;11.8;69.8
78516;SHT31;67815;51.990;5.688;2024-02-21T07:32:05;11.8;69.9
78516;SHT31;67815;51.990;5.688;2024-02-21T07:34:35;11.8;69.7
78516;SHT31;67815;51.990;5.688;2024-02-21T07:37:05;11.8;69.5
78516;SHT31;67815;51.990;5.688;2024-02-21T07:39:38;11.8;69.7
78516;SHT31;67815;51.990;5.688;2024-02-21T07:42:08;11.8;69.6
78516;SHT31;67815;51.990;5.688;2024-02-21T07:44:37;11.8;69.6
78516;SHT31;67815;51.990;5.688;2024-02-21T07:47:08;11.8;69.7
78516;SHT31;67815;51.990;5.688;2024-02-21T07:49:44;11.8;70.0
78516;SHT31;67815;51.990;5.688;2024-02-21T07:52:16;11.8;69.6
78516;SHT31;67815;51.990;5.688;2024-02-21T07:54:46;11.8;69.8
78516;SHT31;67815;51.990;5.688;2024-02-21T07:57:16;11.8;69.9
78516;SHT31;67815;51.990;5.688;2024-02-21T07:59:45;11.8;69.7
78516;SHT31;67815;51.990;5.688;2024-02-21T08:02:17;11.8;69.3
78516;SHT31;67815;51.990;5.688;2024-02-21T08:04:46;11.8;69.6
78516;SHT31;67815;51.990;5.688;2024-02-21T08:07:16;11.8;69.5
78516;SHT31;67815;51.990;5.688;2024-02-21T08:09:46;11.8;69.1
78516;SHT31;67815;51.990;5.688;2024-02-21T08:12:15;11.8;69.5
78516;SHT31;67815;51.990;5.688;2024-02-21T08:14:45;11.8;69.7
78516;SHT31;67815;51.990;5.688;2024-02-21T08:17:14;11.8;69.6
78516;SHT31;67815;51.990;5.688;2024-02-21T08:19:44;11.8;69.7
78516;SHT31;67815;51.990;5.688;2024-02-21T08:22:13;11.8;69.6
78516;SHT31;67815;51.990;5.688;2024-02-21T08:24:43;11.8;69.7
78516;SHT31;67815;51.990;5.688;2024-02-21T08:27:12;11.8;69.5
78516;SHT31;67815;51.990;5.688;2024-02-21T08:29:42;11.9;69.6
78516;SHT31;67815;51.990;5.688;2024-02-21T08:32:12;11.9;69.4
78516;SHT31;67815;51.990;5.688;2024-02-21T08:34:42;11.9;69.6
78516;SHT31;67815;51.990;5.688;2024-02-21T08:37:11;11.9;69.5
78516;SHT31;67815;51.990;5.688;2024-02-21T08:39:41;11.9;69.8
78516;SHT31;67815;51.990;5.688;2024-02-21T08:42:10;11.9;69.4
78516;SHT31;67815;51.990;5.688;2024-02-21T08:44:44;11.9;68.8
78516;SHT31;67815;51.990;5.688;2024-02-21T08:47:14;11.9;68.9
78516;SHT31;67815;51.990;5.688;2024-02-21T08:49:44;11.9;69.4
78516;SHT31;67815;51.990;5.688;2024-02-21T08:52:13;12.0;69.6
78516;SHT31;67815;51.990;5.688;2024-02-21T08:54:43;12.0;69.0
78516;SHT31;67815;51.990;5.688;2024-02-21T08:57:12;12.0;69.3
78516;SHT31;67815;51.990;5.688;2024-02-21T08:59:43;12.0;68.6
78516;SHT31;67815;51.990;5.688;2024-02-21T09:02:12;12.0;68.9
78516;SHT31;67815;51.990;5.688;2024-02-21T09:04:43;12.0;68.7
78516;SHT31;67815;51.990;5.688;2024-02-21T09:07:13;12.0;68.7
78516;SHT31;67815;51.990;5.688;2024-02-21T09:09:43;12.0;68.9
78516;SHT31;67815;51.990;5.688;2024-02-21T09:12:12;12.0;68.8
78516;SHT31;67815;51.990;5.688;2024-02-21T09:14:43;12.0;69.1
78516;SHT31;67815;51.990;5.688;2024-02-21T09:17:15;12.1;68.9
78516;SHT31;67815;51.990;5.688;2024-02-21T09:19:46;12.1;69.2
78516;SHT31;67815;51.990;5.688;2024-02-21T09:22:18;12.1;69.0
78516;SHT31;67815;51.990;5.688;2024-02-21T09:24:48;12.1;68.8
78516;SHT31;67815;51.990;5.688;2024-02-21T09:27:17;12.1;68.5
78516;SHT31;67815;51.990;5.688;2024-02-21T09:29:47;12.1;68.5
78516;SHT31;67815;51.990;5.688;2024-02-21T09:32:17;12.2;68.4
78516;SHT31;67815;51.990;5.688;2024-02-21T09:34:46;12.2;67.9
78516;SHT31;67815;51.990;5.688;2024-02-21T09:37:16;12.2;68.1
78516;SHT31;67815;51.990;5.688;2024-02-21T09:39:45;12.2;68.4
78516;SHT31;67815;51.990;5.688;2024-02-21T09:42:20;12.2;67.9
78516;SHT31;67815;51.990;5.688;2024-02-21T09:44:51;12.2;67.8
78516;SHT31;67815;51.990;5.688;2024-02-21T09:47:30;12.2;68.4
78516;SHT31;67815;51.990;5.688;2024-02-21T09:50:00;12.2;68.5
78516;SHT31;67815;51.990;5.688;2024-02-21T09:52:32;12.2;68.0
78516;SHT31;67815;51.990;5.688;2024-02-21T09:55:09;12.2;67.8
78516;SHT31;67815;51.990;5.688;2024-02-21T09:57:44;12.2;67.6
78516;SHT31;67815;51.990;5.688;2024-02-21T10:00:15;12.2;67.8
78516;SHT31;67815;51.990;5.688;2024-02-21T10:02:49;12.2;68.4
78516;SHT31;67815;51.990;5.688;2024-02-21T10:05:19;12.2;67.3
78516;SHT31;67815;51.990;5.688;2024-02-21T10:07:49;12.3;68.4
78516;SHT31;67815;51.990;5.688;2024-02-21T10:10:20;12.3;67.3
78516;SHT31;67815;51.990;5.688;2024-02-21T10:12:51;12.3;67.9
78516;SHT31;67815;51.990;5.688;2024-02-21T10:15:25;12.3;67.8
78516;SHT31;67815;51.990;5.688;2024-02-21T10:18:01;12.3;68.5
78516;SHT31;67815;51.990;5.688;2024-02-21T10:20:32;12.3;68.0
78516;SHT31;67815;51.990;5.688;2024-02-21T10:23:03;12.3;67.8
78516;SHT31;67815;51.990;5.688;2024-02-21T10:25:36;12.3;68.4
78516;SHT31;67815;51.990;5.688;2024-02-21T10:28:12;12.3;68.2
78516;SHT31;67815;51.990;5.688;2024-02-21T10:30:51;12.3;67.8
78516;SHT31;67815;51.990;5.688;2024-02-21T10:33:23;12.3;68.2
78516;SHT31;67815;51.990;5.688;2024-02-21T10:35:55;12.3;68.0
78516;SHT31;67815;51.990;5.688;2024-02-21T10:38:29;12.3;68.2
78516;SHT31;67815;51.990;5.688;2024-02-21T10:41:03;12.3;68.7
78516;SHT31;67815;51.990;5.688;2024-02-21T10:43:38;12.3;68.2
78516;SHT31;67815;51.990;5.688;2024-02-21T10:46:09;12.3;69.0
78516;SHT31;67815;51.990;5.688;2024-02-21T10:48:44;12.3;69.0
78516;SHT31;67815;51.990;5.688;2024-02-21T10:51:17;12.3;68.7
78516;SHT31;67815;51.990;5.688;2024-02-21T10:53:58;12.2;69.3
78516;SHT31;67815;51.990;5.688;2024-02-21T10:56:33;12.2;69.1
78516;SHT31;67815;51.990;5.688;2024-02-21T10:59:06;12.2;69.9
78516;SHT31;67815;51.990;5.688;2024-02-21T11:01:36;12.2;69.6
78516;SHT31;67815;51.990;5.688;2024-02-21T11:04:08;12.2;69.9
78516;SHT31;67815;51.990;5.688;2024-02-21T11:06:40;12.2;69.2
78516;SHT31;67815;51.990;5.688;2024-02-21T11:09:11;12.2;69.4
78516;SHT31;67815;51.990;5.688;2024-02-21T11:11:43;12.2;69.4
78516;SHT31;67815;51.990;5.688;2024-02-21T11:14:20;12.2;69.6
78516;SHT31;67815;51.990;5.688;2024-02-21T11:16:50;12.2;68.8
78516;SHT31;67815;51.990;5.688;2024-02-21T11:19:25;12.2;68.6
78516;SHT31;67815;51.990;5.688;2024-02-21T11:21:56;12.3;69.8
78516;SHT31;67815;51.990;5.688;2024-02-21T11:24:30;12.3;69.5
78516;SHT31;67815;51.990;5.688;2024-02-21T11:27:11;12.3;69.8
78516;SHT31;67815;51.990;5.688;2024-02-21T11:29:43;12.3;69.6
78516;SHT31;67815;51.990;5.688;2024-02-21T11:32:14;12.3;69.0
78516;SHT31;67815;51.990;5.688;2024-02-21T11:34:56;12.4;68.4
78516;SHT31;67815;51.990;5.688;2024-02-21T11:37:31;12.4;68.8
78516;SHT31;67815;51.990;5.688;2024-02-21T11:40:06;12.4;68.6
78516;SHT31;67815;51.990;5.688;2024-02-21T11:42:38;12.4;68.2
78516;SHT31;67815;51.990;5.688;2024-02-21T11:45:09;12.4;68.3
78516;SHT31;67815;51.990;5.688;2024-02-21T11:47:42;12.4;68.0
78516;SHT31;67815;51.990;5.688;2024-02-21T11:50:12;12.4;68.2
78516;SHT31;67815;51.990;5.688;2024-02-21T11:52:42;12.4;67.7
78516;SHT31;67815;51.990;5.688;2024-02-21T11:55:11;12.4;68.2
78516;SHT31;67815;51.990;5.688;2024-02-21T11:57:44;12.4;67.9
78516;SHT31;67815;51.990;5.688;2024-02-21T12:00:15;12.4;68.0
78516;SHT31;67815;51.990;5.688;2024-02-21T12:02:48;12.4;67.6
78516;SHT31;67815;51.990;5.688;2024-02-21T12:05:20;12.4;67.4
78516;SHT31;67815;51.990;5.688;2024-02-21T12:07:50;12.4;67.6
78516;SHT31;67815;51.990;5.688;2024-02-21T12:10:20;12.4;67.9
78516;SHT31;67815;51.990;5.688;2024-02-21T12:12:49;12.4;67.7
78516;SHT31;67815;51.990;5.688;2024-02-21T12:15:24;12.4;67.0
78516;SHT31;67815;51.990;5.688;2024-02-21T12:17:53;12.4;68.1
78516;SHT31;67815;51.990;5.688;2024-02-21T12:20:23;12.4;67.8
78516;SHT31;67815;51.990;5.688;2024-02-21T12:22:54;12.4;67.1
78516;SHT31;67815;51.990;5.688;2024-02-21T12:25:28;12.4;67.8
78516;SHT31;67815;51.990;5.688;2024-02-21T12:27:58;12.5;67.1
78516;SHT31;67815;51.990;5.688;2024-02-21T12:30:28;12.5;67.1
78516;SHT31;67815;51.990;5.688;2024-02-21T12:33:00;12.6;67.1
78516;SHT31;67815;51.990;5.688;2024-02-21T12:35:30;12.6;67.1
78516;SHT31;67815;51.990;5.688;2024-02-21T12:38:00;12.6;67.1
78516;SHT31;67815;51.990;5.688;2024-02-21T12:40:30;12.7;66.4
78516;SHT31;67815;51.990;5.688;2024-02-21T12:43:01;12.7;66.2
78516;SHT31;67815;51.990;5.688;2024-02-21T12:45:32;12.7;66.6
78516;SHT31;67815;51.990;5.688;2024-02-21T12:48:03;12.7;66.2
78516;SHT31;67815;51.990;5.688;2024-02-21T12:50:33;12.7;66.4
78516;SHT31;67815;51.990;5.688;2024-02-21T12:53:03;12.8;66.0
78516;SHT31;67815;51.990;5.688;2024-02-21T12:55:33;12.8;66.2
78516;SHT31;67815;51.990;5.688;2024-02-21T12:58:05;12.8;66.9
78516;SHT31;67815;51.990;5.688;2024-02-21T13:00:36;12.8;65.6
78516;SHT31;67815;51.990;5.688;2024-02-21T13:03:07;12.8;65.8
78516;SHT31;67815;51.990;5.688;2024-02-21T13:05:37;12.8;66.0
78516;SHT31;67815;51.990;5.688;2024-02-21T13:08:09;12.8;65.9
78516;SHT31;67815;51.990;5.688;2024-02-21T13:10:42;12.8;65.6
78516;SHT31;67815;51.990;5.688;2024-02-21T13:13:11;12.8;65.2
78516;SHT31;67815;51.990;5.688;2024-02-21T13:15:41;12.8;65.5
78516;SHT31;67815;51.990;5.688;2024-02-21T13:18:11;12.8;65.6
78516;SHT31;67815;51.990;5.688;2024-02-21T13:20:40;12.8;65.6
78516;SHT31;67815;51.990;5.688;2024-02-21T13:23:10;12.8;65.0
78516;SHT31;67815;51.990;5.688;2024-02-21T13:25:40;12.9;65.7
78516;SHT31;67815;51.990;5.688;2024-02-21T13:28:11;12.9;66.3
78516;SHT31;67815;51.990;5.688;2024-02-21T13:30:43;12.9;64.7
78516;SHT31;67815;51.990;5.688;2024-02-21T13:33:13;12.9;65.4
78516;SHT31;67815;51.990;5.688;2024-02-21T13:35:43;12.9;65.6
78516;SHT31;67815;51.990;5.688;2024-02-21T13:38:13;12.9;64.7
78516;SHT31;67815;51.990;5.688;2024-02-21T13:40:42;12.9;65.1
78516;SHT31;67815;51.990;5.688;2024-02-21T13:43:12;12.9;65.2
78516;SHT31;67815;51.990;5.688;2024-02-21T13:46:00;12.9;65.3
78516;SHT31;67815;51.990;5.688;2024-02-21T13:48:26;12.9;65.8
78516;SHT31;67815;51.990;5.688;2024-02-21T13:50:57;12.9;65.7
78516;SHT31;67815;51.990;5.688;2024-02-21T13:53:29;12.9;65.2
78516;SHT31;67815;51.990;5.688;2024-02-21T13:56:01;12.9;65.4
78516;SHT31;67815;51.990;5.688;2024-02-21T13:58:31;12.9;65.9
78516;SHT31;67815;51.990;5.688;2024-02-21T14:01:00;13.0;65.2
78516;SHT31;67815;51.990;5.688;2024-02-21T14:03:30;13.0;65.3
78516;SHT31;67815;51.990;5.688;2024-02-21T14:06:00;13.0;64.9
78516;SHT31;67815;51.990;5.688;2024-02-21T14:08:31;13.0;65.4
78516;SHT31;67815;51.990;5.688;2024-02-21T14:11:02;13.0;65.4
78516;SHT31;67815;51.990;5.688;2024-02-21T14:13:33;13.0;64.5
78516;SHT31;67815;51.990;5.688;2024-02-21T14:16:03;13.0;65.1
78516;SHT31;67815;51.990;5.688;2024-02-21T14:18:38;13.0;65.2
78516;SHT31;67815;51.990;5.688;2024-02-21T14:21:08;13.0;65.1
78516;SHT31;67815;51.990;5.688;2024-02-21T14:23:40;13.0;64.5
78516;SHT31;67815;51.990;5.688;2024-02-21T14:26:10;13.0;65.1
78516;SHT31;67815;51.990;5.688;2024-02-21T14:28:41;13.0;65.2
78516;SHT31;67815;51.990;5.688;2024-02-21T14:31:11;13.0;63.3
78516;SHT31;67815;51.990;5.688;2024-02-21T14:33:41;13.0;63.4
78516;SHT31;67815;51.990;5.688;2024-02-21T14:36:11;13.0;64.0
78516;SHT31;67815;51.990;5.688;2024-02-21T14:38:43;13.0;64.2
78516;SHT31;67815;51.990;5.688;2024-02-21T14:41:13;13.0;63.8
78516;SHT31;67815;51.990;5.688;2024-02-21T14:43:43;13.0;64.2
78516;SHT31;67815;51.990;5.688;2024-02-21T14:46:13;13.0;64.2
78516;SHT31;67815;51.990;5.688;2024-02-21T14:48:43;13.0;63.7
78516;SHT31;67815;51.990;5.688;2024-02-21T14:51:13;13.0;63.5
78516;SHT31;67815;51.990;5.688;2024-02-21T14:53:43;13.0;63.3
78516;SHT31;67815;51.990;5.688;2024-02-21T14:56:15;13.0;63.1
78516;SHT31;67815;51.990;5.688;2024-02-21T14:58:44;13.0;63.5
78516;SHT31;67815;51.990;5.688;2024-02-21T15:01:17;13.0;64.0
78516;SHT31;67815;51.990;5.688;2024-02-21T15:03:47;13.0;64.7
78516;SHT31;67815;51.990;5.688;2024-02-21T15:06:16;13.0;64.7
78516;SHT31;67815;51.990;5.688;2024-02-21T15:08:48;13.0;64.5
78516;SHT31;67815;51.990;5.688;2024-02-21T15:11:19;12.9;64.9
78516;SHT31;67815;51.990;5.688;2024-02-21T15:13:49;12.9;65.2
78516;SHT31;67815;51.990;5.688;2024-02-21T15:16:19;12.9;65.4
78516;SHT31;67815;51.990;5.688;2024-02-21T15:18:49;12.9;65.7
78516;SHT31;67815;51.990;5.688;2024-02-21T15:21:19;12.9;66.2
78516;SHT31;67815;51.990;5.688;2024-02-21T15:23:48;12.9;66.1
78516;SHT31;67815;51.990;5.688;2024-02-21T15:26:18;12.8;66.6
78516;SHT31;67815;51.990;5.688;2024-02-21T15:28:48;12.8;66.5
78516;SHT31;67815;51.990;5.688;2024-02-21T15:31:24;12.8;67.5
78516;SHT31;67815;51.990;5.688;2024-02-21T15:33:54;12.7;68.3
78516;SHT31;67815;51.990;5.688;2024-02-21T15:36:23;12.7;67.7
78516;SHT31;67815;51.990;5.688;2024-02-21T15:38:55;12.7;67.7
78516;SHT31;67815;51.990;5.688;2024-02-21T15:41:26;12.6;68.2
78516;SHT31;67815;51.990;5.688;2024-02-21T15:43:56;12.6;68.8
78516;SHT31;67815;51.990;5.688;2024-02-21T15:46:26;12.6;68.5
78516;SHT31;67815;51.990;5.688;2024-02-21T15:48:57;12.5;68.7
78516;SHT31;67815;51.990;5.688;2024-02-21T15:51:27;12.5;69.2
78516;SHT31;67815;51.990;5.688;2024-02-21T15:53:58;12.5;69.9
78516;SHT31;67815;51.990;5.688;2024-02-21T15:56:28;12.4;70.0
78516;SHT31;67815;51.990;5.688;2024-02-21T15:58:57;12.4;70.2
78516;SHT31;67815;51.990;5.688;2024-02-21T16:01:27;12.4;70.0
78516;SHT31;67815;51.990;5.688;2024-02-21T16:04:01;12.4;69.9
78516;SHT31;67815;51.990;5.688;2024-02-21T16:06:33;12.4;70.2
78516;SHT31;67815;51.990;5.688;2024-02-21T16:09:03;12.3;70.2
78516;SHT31;67815;51.990;5.688;2024-02-21T16:11:36;12.3;70.4
78516;SHT31;67815;51.990;5.688;2024-02-21T16:14:08;12.2;70.3
78516;SHT31;67815;51.990;5.688;2024-02-21T16:16:39;12.2;70.8
78516;SHT31;67815;51.990;5.688;2024-02-21T16:19:11;12.2;70.8
78516;SHT31;67815;51.990;5.688;2024-02-21T16:21:42;12.1;71.0
78516;SHT31;67815;51.990;5.688;2024-02-21T16:24:13;12.1;71.1